Ogden, UT (84409)

6:51 AM MDT on October 25, 2014 (GMT -0600)
APRSWXNET Ogden UT US | Change Station
CLOSE
Current Station
Personal Weather Station
Location: Ogden, UT
Elevation: 4498 ft
Nearby Weather Stations

Elev 4498 ft 41.20 °N, 111.96 °W | Updated 46 minutes ago

Clear
Clear
49 °F
Feels Like 49 °F
N
1
Wind Variable Wind from SSE
Gusts 0.0 mph

Today
High -- | Low -- °F
--% Chance of Precip.
Yesterday
High -- | Low -- °F
Precip. -- in
7:50 AM 6:32 PM
Waxing Crescent, 3% visible
Pressure 29.96 in
Visibility 10.0 miles
Clouds Clear
Windchill 49 °F
Dew Point 30 °F
Humidity 47%
Rainfall -999.00 in
Snow Depth 0 in , 1 in , 0 in
UV 0 out of 12
Pollen 2.00 out of 12
PM2.5 Good
Flu Activity Sporadic
METAR KOGD 251153Z 16009KT 10SM CLR 12/M02 A3007 RMK AO2 SLP143 T01171022 10150 20100 56010

More Conditions Fewer Conditions

Pressure 29.96 in
Visibility 10.0 miles
Clouds Clear
Windchill 49 °F
Dew Point 30 °F
Humidity 47%
Rainfall -999.00 in
Snow Depth 0 in , 1 in , 0 in
UV 0 out of 12
Pollen 2.00 out of 12
PM2.5 Good
Flu Activity Sporadic
METAR KOGD 251153Z 16009KT 10SM CLR 12/M02 A3007 RMK AO2 SLP143 T01171022 10150 20100 56010

More Conditions Fewer Conditions

10-Day Weather Forecast

Almanac

Astronomy

Oct. 25, 2014 Rise Set
Actual Time 7:50 AM MDT 6:32 PM MDT
Civil Twilight 7:22 AM MDT 7:00 PM MDT
Nautical Twilight 6:50 AM MDT 7:32 PM MDT
Astronomical Twilight 6:18 AM MDT 8:04 PM MDT
Moon 9:34 AM MDT 7:57 PM MDT
Length of Visible Light 11h 37m
Length of Day
10h 41m
Tomorrow will be 2m 31s shorter.
Waxing Crescent, 3% of the Moon is Illuminated
Today
Waxing Crescent
Oct 30
First Quarter
Nov 6
Full
Nov 14
Last Quarter
Nov 22
New

Today's Extremes

State Highs State Lows

Community

WunderPhotos

Upload Photos

1,764,821 photos uploaded!

Nearby

Air Quality

  Air Quality AQ Index Pollutant
Yesterday Good
PM10
Yesterday Good
OZONE
Current Good
PM2.5
Saturday Good
OZONE
Sunday Good
OZONE

Snow Depth

Station Depth Elevation
Ben Lomond Peak 0 in 8000 ft
Ben Lomond Trail 1 in 6000 ft
Little Bear 0 in 6550 ft
Farmington 0 in 8000 ft
Parrish Creek 0 in 7740 ft

Earthquake Activity

City Distance Mag. Time & Date
No recent earthquake activity has been reported nearby.
Minimum magnitude displayed is 2.5.

Coastal Water Temperatures

Place Temperature
No Stations Reporting

Nearby Weather Stations